EXS27KF LEPA-EGBB
Flight info
| Callsign | EXS27KF |
|---|---|
| Flight time | 2h 3m |
| Altitude | 38000 |
| Route | GALAT DCT RODRA N861 OLOXO DCT OKABI DCT TOU DCT TUPAR UN861 DIKRO UM184 KOTEM M184 HEMEL |
| Aircraft | A21N/M-SDE2E3FGHIRWXY/LB1 |
Departure
| Time | 2026-05-04 21:14 |
|---|---|
| Airport | Palma de Mallorca Airport (LEPA) |
Arrival
| Time | 2026-05-04 23:17 |
|---|---|
| Airport | Birmingham Airport (EGBB) |
| Time | Latitude | Longitude | Altitude | Speed | Heading |
|---|---|---|---|---|---|
| 2026-05-04 20:53 | 39.55103 | 2.72902 | 44 ft | 0 kts | 163° |
| 2026-05-04 21:03 | 39.55124 | 2.72894 | 44 ft | 4 kts | 163° |
| 2026-05-04 21:03 | 39.55147 | 2.72882 | 40 ft | 4 kts | 141° |
| 2026-05-04 21:04 | 39.55158 | 2.72858 | 44 ft | 4 kts | 85° |
| 2026-05-04 21:04 | 39.55150 | 2.72827 | 42 ft | 4 kts | 59° |
| 2026-05-04 21:04 | 39.55139 | 2.72804 | 40 ft | 4 kts | 59° |
| 2026-05-04 21:04 | 39.55136 | 2.72798 | 41 ft | 1 kts | 59° |
| 2026-05-04 21:08 | 39.55138 | 2.72803 | 42 ft | 2 kts | 59° |
| 2026-05-04 21:08 | 39.55150 | 2.72828 | 41 ft | 5 kts | 58° |
| 2026-05-04 21:08 | 39.55173 | 2.72876 | 41 ft | 8 kts | 58° |
| 2026-05-04 21:09 | 39.55209 | 2.72951 | 44 ft | 12 kts | 58° |
| 2026-05-04 21:09 | 39.55257 | 2.73053 | 44 ft | 15 kts | 58° |
| 2026-05-04 21:09 | 39.55317 | 2.73179 | 41 ft | 18 kts | 59° |
| 2026-05-04 21:09 | 39.55388 | 2.73329 | 44 ft | 21 kts | 58° |
| 2026-05-04 21:10 | 39.55468 | 2.73495 | 44 ft | 17 kts | 58° |
| 2026-05-04 21:10 | 39.55529 | 2.73563 | 44 ft | 11 kts | 348° |
| 2026-05-04 21:10 | 39.55609 | 2.73511 | 43 ft | 15 kts | 339° |
| 2026-05-04 21:10 | 39.55690 | 2.73583 | 44 ft | 18 kts | 61° |
| 2026-05-04 21:11 | 39.55759 | 2.73725 | 44 ft | 20 kts | 57° |
| 2026-05-04 21:11 | 39.55840 | 2.73888 | 44 ft | 23 kts | 57° |
| 2026-05-04 21:11 | 39.55926 | 2.74076 | 44 ft | 25 kts | 59° |
| 2026-05-04 21:11 | 39.56023 | 2.74281 | 44 ft | 28 kts | 58° |
| 2026-05-04 21:12 | 39.56142 | 2.74489 | 44 ft | 30 kts | 29° |
| 2026-05-04 21:12 | 39.56220 | 2.74467 | 44 ft | 11 kts | 298° |
| 2026-05-04 21:12 | 39.56253 | 2.74361 | 44 ft | 14 kts | 277° |
| 2026-05-04 21:12 | 39.56214 | 2.74234 | 44 ft | 17 kts | 233° |
| 2026-05-04 21:13 | 39.56128 | 2.74055 | 44 ft | 43 kts | 238° |
| 2026-05-04 21:13 | 39.55843 | 2.73454 | 44 ft | 110 kts | 239° |
| 2026-05-04 21:13 | 39.55342 | 2.72392 | 44 ft | 163 kts | 238° |
| 2026-05-04 21:13 | 39.54718 | 2.71068 | 406 ft | 175 kts | 238° |
| 2026-05-04 21:14 | 39.54053 | 2.69700 | 940 ft | 185 kts | 237° |
| 2026-05-04 21:14 | 39.53315 | 2.68276 | 1475 ft | 197 kts | 237° |
| 2026-05-04 21:14 | 39.52534 | 2.66750 | 2071 ft | 209 kts | 237° |
| 2026-05-04 21:14 | 39.51723 | 2.65159 | 2928 ft | 215 kts | 237° |
| 2026-05-04 21:15 | 39.50887 | 2.63520 | 3848 ft | 219 kts | 237° |
| 2026-05-04 21:15 | 39.50047 | 2.61868 | 4797 ft | 221 kts | 237° |
| 2026-05-04 21:15 | 39.49195 | 2.60192 | 5728 ft | 224 kts | 237° |
| 2026-05-04 21:15 | 39.48340 | 2.58517 | 6638 ft | 227 kts | 237° |
| 2026-05-04 21:16 | 39.47466 | 2.56798 | 7521 ft | 232 kts | 237° |
| 2026-05-04 21:16 | 39.46833 | 2.54776 | 7946 ft | 257 kts | 264° |
| 2026-05-04 21:16 | 39.47094 | 2.52435 | 8396 ft | 275 kts | 295° |
| 2026-05-04 21:16 | 39.48313 | 2.50512 | 9143 ft | 282 kts | 324° |
| 2026-05-04 21:17 | 39.49965 | 2.49143 | 10040 ft | 286 kts | 329° |
| 2026-05-04 21:17 | 39.51731 | 2.47775 | 10614 ft | 305 kts | 329° |
| 2026-05-04 21:17 | 39.53617 | 2.46280 | 10984 ft | 329 kts | 328° |
| 2026-05-04 21:17 | 39.55627 | 2.44655 | 11323 ft | 352 kts | 328° |
| 2026-05-04 21:18 | 39.57756 | 2.42896 | 11638 ft | 373 kts | 327° |
| 2026-05-04 21:18 | 39.59988 | 2.41023 | 11917 ft | 392 kts | 327° |
| 2026-05-04 21:18 | 39.62312 | 2.39076 | 12336 ft | 401 kts | 327° |
| 2026-05-04 21:18 | 39.64670 | 2.37104 | 12948 ft | 405 kts | 327° |
| 2026-05-04 21:19 | 39.67048 | 2.35110 | 13583 ft | 408 kts | 327° |
| 2026-05-04 21:19 | 39.69442 | 2.33099 | 14142 ft | 411 kts | 327° |
| 2026-05-04 21:19 | 39.71851 | 2.31071 | 14673 ft | 414 kts | 327° |
| 2026-05-04 21:19 | 39.74250 | 2.29044 | 15217 ft | 418 kts | 327° |
| 2026-05-04 21:20 | 39.76697 | 2.26982 | 15760 ft | 421 kts | 327° |
| 2026-05-04 21:20 | 39.79165 | 2.24902 | 16236 ft | 424 kts | 327° |
| 2026-05-04 21:20 | 39.81644 | 2.22806 | 16679 ft | 427 kts | 327° |
| 2026-05-04 21:20 | 39.84142 | 2.20687 | 17108 ft | 430 kts | 327° |
| 2026-05-04 21:21 | 39.86660 | 2.18556 | 17526 ft | 432 kts | 327° |
| 2026-05-04 21:21 | 39.89186 | 2.16415 | 17938 ft | 435 kts | 327° |
| 2026-05-04 21:21 | 39.91737 | 2.14262 | 18338 ft | 438 kts | 327° |
| 2026-05-04 21:21 | 39.94296 | 2.12095 | 18744 ft | 440 kts | 327° |
| 2026-05-04 21:22 | 39.96869 | 2.09912 | 19141 ft | 443 kts | 327° |
| 2026-05-04 21:22 | 39.99462 | 2.07706 | 19553 ft | 445 kts | 327° |
| 2026-05-04 21:22 | 40.02061 | 2.05497 | 19973 ft | 448 kts | 327° |
| 2026-05-04 21:22 | 40.04685 | 2.03264 | 20366 ft | 451 kts | 327° |
| 2026-05-04 21:23 | 40.07317 | 2.01022 | 20762 ft | 453 kts | 327° |
| 2026-05-04 21:23 | 40.09964 | 1.98762 | 21222 ft | 456 kts | 326° |
| 2026-05-04 21:23 | 40.12636 | 1.96484 | 21712 ft | 460 kts | 328° |
| 2026-05-04 21:23 | 40.15482 | 1.94560 | 22145 ft | 463 kts | 338° |
| 2026-05-04 21:24 | 40.18572 | 1.93344 | 22554 ft | 466 kts | 348° |
| 2026-05-04 21:24 | 40.21763 | 1.92576 | 22960 ft | 469 kts | 350° |
| 2026-05-04 21:24 | 40.24989 | 1.91849 | 23360 ft | 472 kts | 350° |
| 2026-05-04 21:24 | 40.28240 | 1.91109 | 23764 ft | 474 kts | 350° |
| 2026-05-04 21:25 | 40.31499 | 1.90356 | 24153 ft | 477 kts | 349° |
| 2026-05-04 21:25 | 40.34779 | 1.89589 | 24525 ft | 480 kts | 349° |
| 2026-05-04 21:25 | 40.38068 | 1.88819 | 24904 ft | 481 kts | 349° |
| 2026-05-04 21:25 | 40.41328 | 1.88060 | 25357 ft | 480 kts | 349° |
| 2026-05-04 21:26 | 40.44613 | 1.87294 | 25835 ft | 479 kts | 349° |
| 2026-05-04 21:26 | 40.47936 | 1.86521 | 26299 ft | 478 kts | 349° |
| 2026-05-04 21:26 | 40.51170 | 1.85766 | 26749 ft | 477 kts | 349° |
| 2026-05-04 21:26 | 40.54484 | 1.84991 | 27195 ft | 477 kts | 349° |
| 2026-05-04 21:27 | 40.57702 | 1.84237 | 27623 ft | 476 kts | 349° |
| 2026-05-04 21:27 | 40.60964 | 1.83472 | 28042 ft | 475 kts | 349° |
| 2026-05-04 21:27 | 40.64214 | 1.82705 | 28460 ft | 474 kts | 349° |
| 2026-05-04 21:27 | 40.67465 | 1.81939 | 28873 ft | 473 kts | 349° |
| 2026-05-04 21:28 | 40.70701 | 1.81178 | 29280 ft | 472 kts | 349° |
| 2026-05-04 21:28 | 40.73936 | 1.80415 | 29679 ft | 472 kts | 349° |
| 2026-05-04 21:28 | 40.77164 | 1.79657 | 30074 ft | 471 kts | 349° |
| 2026-05-04 21:28 | 40.80391 | 1.78895 | 30466 ft | 470 kts | 349° |
| 2026-05-04 21:29 | 40.83605 | 1.78132 | 30844 ft | 469 kts | 349° |
| 2026-05-04 21:29 | 40.86823 | 1.77371 | 31221 ft | 469 kts | 349° |
| 2026-05-04 21:29 | 40.90023 | 1.76616 | 31591 ft | 468 kts | 349° |
| 2026-05-04 21:29 | 40.93232 | 1.75853 | 31953 ft | 467 kts | 349° |
| 2026-05-04 21:30 | 40.96385 | 1.75104 | 32301 ft | 466 kts | 349° |
| 2026-05-04 21:30 | 40.99577 | 1.74345 | 32640 ft | 466 kts | 349° |
| 2026-05-04 21:30 | 41.02799 | 1.73581 | 32969 ft | 465 kts | 349° |
| 2026-05-04 21:30 | 41.05955 | 1.72905 | 33286 ft | 464 kts | 352° |
| 2026-05-04 21:31 | 41.12360 | 1.71907 | 33892 ft | 463 kts | 353° |
| 2026-05-04 21:31 | 41.15566 | 1.71414 | 34169 ft | 463 kts | 353° |
| 2026-05-04 21:31 | 41.18758 | 1.70925 | 34433 ft | 462 kts | 353° |
| 2026-05-04 21:32 | 41.21939 | 1.70437 | 34697 ft | 462 kts | 353° |
| 2026-05-04 21:32 | 41.25141 | 1.69948 | 34932 ft | 462 kts | 353° |
| 2026-05-04 21:32 | 41.28337 | 1.69459 | 35139 ft | 462 kts | 353° |
| 2026-05-04 21:32 | 41.31537 | 1.68959 | 35351 ft | 462 kts | 353° |
| 2026-05-04 21:33 | 41.34735 | 1.68460 | 35592 ft | 461 kts | 353° |
| 2026-05-04 21:33 | 41.37920 | 1.67965 | 35808 ft | 461 kts | 353° |
| 2026-05-04 21:33 | 41.40025 | 1.67638 | 35940 ft | 461 kts | 353° |
| 2026-05-04 21:33 | 41.44246 | 1.66980 | 36188 ft | 461 kts | 353° |
| 2026-05-04 21:34 | 41.47430 | 1.66487 | 36354 ft | 461 kts | 353° |
| 2026-05-04 21:34 | 41.50617 | 1.65992 | 36502 ft | 461 kts | 353° |
| 2026-05-04 21:34 | 41.52771 | 1.65655 | 36607 ft | 462 kts | 353° |
| 2026-05-04 21:34 | 41.55928 | 1.65158 | 36782 ft | 461 kts | 353° |
| 2026-05-04 21:35 | 41.59112 | 1.64657 | 36946 ft | 461 kts | 353° |
| 2026-05-04 21:35 | 41.62302 | 1.64153 | 37103 ft | 461 kts | 353° |
| 2026-05-04 21:35 | 41.65483 | 1.63654 | 37221 ft | 462 kts | 353° |
| 2026-05-04 21:35 | 41.68684 | 1.63156 | 37322 ft | 463 kts | 353° |
| 2026-05-04 21:36 | 41.71884 | 1.62660 | 37459 ft | 463 kts | 353° |
| 2026-05-04 21:36 | 41.75078 | 1.62159 | 37596 ft | 463 kts | 353° |
| 2026-05-04 21:36 | 41.78280 | 1.61657 | 37709 ft | 463 kts | 353° |
| 2026-05-04 21:37 | 41.84685 | 1.60650 | 37938 ft | 463 kts | 353° |
| 2026-05-04 21:37 | 41.87886 | 1.60146 | 38042 ft | 464 kts | 353° |
| 2026-05-04 21:37 | 41.91093 | 1.59640 | 38042 ft | 463 kts | 353° |
| 2026-05-04 21:38 | 41.97494 | 1.58625 | 38011 ft | 463 kts | 353° |
| 2026-05-04 21:38 | 42.03888 | 1.57613 | 38003 ft | 463 kts | 353° |
| 2026-05-04 21:39 | 42.10289 | 1.56593 | 38001 ft | 465 kts | 353° |
| 2026-05-04 21:39 | 42.16751 | 1.55557 | 37999 ft | 469 kts | 353° |
| 2026-05-04 21:40 | 42.23257 | 1.54522 | 38004 ft | 470 kts | 353° |
| 2026-05-04 21:40 | 42.29740 | 1.53491 | 37999 ft | 471 kts | 353° |
| 2026-05-04 21:41 | 42.36273 | 1.52444 | 38002 ft | 472 kts | 353° |
| 2026-05-04 21:41 | 42.42764 | 1.51396 | 37998 ft | 474 kts | 353° |
| 2026-05-04 21:42 | 42.49320 | 1.50341 | 38002 ft | 474 kts | 353° |
| 2026-05-04 21:42 | 42.55887 | 1.49285 | 38001 ft | 475 kts | 353° |
| 2026-05-04 21:43 | 42.62465 | 1.48217 | 38001 ft | 477 kts | 353° |
| 2026-05-04 21:43 | 42.69062 | 1.47150 | 38004 ft | 478 kts | 353° |
| 2026-05-04 21:44 | 42.75668 | 1.46089 | 38002 ft | 474 kts | 353° |
| 2026-05-04 21:44 | 42.82202 | 1.45038 | 37999 ft | 474 kts | 353° |
| 2026-05-04 21:45 | 42.88780 | 1.43978 | 38003 ft | 475 kts | 353° |
| 2026-05-04 21:45 | 42.95320 | 1.42917 | 38001 ft | 472 kts | 353° |
| 2026-05-04 21:46 | 43.01830 | 1.41862 | 38001 ft | 468 kts | 353° |
| 2026-05-04 21:46 | 43.08255 | 1.40824 | 38002 ft | 467 kts | 353° |
| 2026-05-04 21:47 | 43.14706 | 1.39776 | 38001 ft | 467 kts | 353° |
| 2026-05-04 21:47 | 43.21157 | 1.38722 | 38001 ft | 466 kts | 353° |
| 2026-05-04 21:48 | 43.27592 | 1.37655 | 38001 ft | 466 kts | 353° |
| 2026-05-04 21:48 | 43.34031 | 1.36595 | 38001 ft | 466 kts | 353° |
| 2026-05-04 21:49 | 43.40468 | 1.35532 | 38002 ft | 466 kts | 353° |
| 2026-05-04 21:49 | 43.46910 | 1.34473 | 38002 ft | 465 kts | 353° |
| 2026-05-04 21:50 | 43.53335 | 1.33412 | 38002 ft | 465 kts | 353° |
| 2026-05-04 21:50 | 43.59764 | 1.32349 | 38002 ft | 465 kts | 353° |
| 2026-05-04 21:51 | 43.66182 | 1.31233 | 37999 ft | 465 kts | 349° |
| 2026-05-04 21:51 | 43.69309 | 1.30067 | 37999 ft | 465 kts | 338° |
| 2026-05-04 21:51 | 43.72217 | 1.28251 | 38004 ft | 465 kts | 333° |
| 2026-05-04 21:52 | 43.77993 | 1.24234 | 38001 ft | 464 kts | 333° |
| 2026-05-04 21:52 | 43.83770 | 1.20240 | 38001 ft | 464 kts | 333° |
| 2026-05-04 21:53 | 43.89566 | 1.16271 | 38002 ft | 464 kts | 333° |
| 2026-05-04 21:53 | 43.95358 | 1.12292 | 38001 ft | 465 kts | 333° |
| 2026-05-04 21:54 | 44.01146 | 1.08301 | 38001 ft | 464 kts | 333° |
| 2026-05-04 21:54 | 44.06942 | 1.04335 | 38001 ft | 464 kts | 333° |
| 2026-05-04 21:55 | 44.12728 | 1.00338 | 38001 ft | 464 kts | 333° |
| 2026-05-04 21:55 | 44.18501 | 0.96318 | 38002 ft | 464 kts | 333° |
| 2026-05-04 21:56 | 44.24281 | 0.92276 | 38002 ft | 465 kts | 333° |
| 2026-05-04 21:56 | 44.30074 | 0.88262 | 38002 ft | 464 kts | 333° |
| 2026-05-04 21:57 | 44.35856 | 0.84208 | 38002 ft | 465 kts | 333° |
| 2026-05-04 21:57 | 44.41640 | 0.80185 | 38001 ft | 464 kts | 333° |
| 2026-05-04 21:58 | 44.47433 | 0.76152 | 38001 ft | 464 kts | 333° |
| 2026-05-04 21:58 | 44.53205 | 0.72108 | 38001 ft | 464 kts | 333° |
| 2026-05-04 21:59 | 44.58950 | 0.68084 | 38002 ft | 464 kts | 333° |
| 2026-05-04 21:59 | 44.64729 | 0.64012 | 38001 ft | 464 kts | 333° |
| 2026-05-04 22:00 | 44.70491 | 0.59926 | 38001 ft | 464 kts | 333° |
| 2026-05-04 22:00 | 44.76257 | 0.55832 | 38001 ft | 464 kts | 333° |
| 2026-05-04 22:01 | 44.82030 | 0.51746 | 38002 ft | 464 kts | 333° |
| 2026-05-04 22:01 | 44.87788 | 0.47650 | 38002 ft | 464 kts | 333° |
| 2026-05-04 22:02 | 44.93547 | 0.43541 | 38001 ft | 464 kts | 333° |
| 2026-05-04 22:02 | 44.99321 | 0.39420 | 38001 ft | 464 kts | 333° |
| 2026-05-04 22:03 | 45.05084 | 0.35299 | 38001 ft | 464 kts | 333° |
| 2026-05-04 22:03 | 45.10850 | 0.31185 | 38001 ft | 464 kts | 333° |
| 2026-05-04 22:04 | 45.16578 | 0.27071 | 38001 ft | 464 kts | 333° |
| 2026-05-04 22:04 | 45.22365 | 0.22895 | 38002 ft | 464 kts | 333° |
| 2026-05-04 22:05 | 45.28081 | 0.18758 | 38002 ft | 464 kts | 333° |
| 2026-05-04 22:05 | 45.33831 | 0.14590 | 38002 ft | 464 kts | 333° |
| 2026-05-04 22:06 | 45.39586 | 0.10412 | 38002 ft | 464 kts | 333° |
| 2026-05-04 22:06 | 45.45339 | 0.06233 | 38001 ft | 464 kts | 333° |
| 2026-05-04 22:07 | 45.51089 | 0.02033 | 38001 ft | 464 kts | 333° |
| 2026-05-04 22:07 | 45.56850 | -0.02172 | 38001 ft | 464 kts | 332° |
| 2026-05-04 22:08 | 45.62587 | -0.06390 | 38001 ft | 464 kts | 332° |
| 2026-05-04 22:08 | 45.68323 | -0.10605 | 38001 ft | 463 kts | 332° |
| 2026-05-04 22:09 | 45.74030 | -0.14808 | 38001 ft | 464 kts | 332° |
| 2026-05-04 22:09 | 45.79766 | -0.19034 | 38001 ft | 464 kts | 332° |
| 2026-05-04 22:10 | 45.85504 | -0.23278 | 38001 ft | 464 kts | 332° |
| 2026-05-04 22:10 | 45.91232 | -0.27528 | 38001 ft | 464 kts | 332° |
| 2026-05-04 22:11 | 45.96968 | -0.31787 | 38001 ft | 464 kts | 332° |
| 2026-05-04 22:11 | 46.02705 | -0.36060 | 38001 ft | 464 kts | 332° |
| 2026-05-04 22:12 | 46.08435 | -0.40334 | 38002 ft | 464 kts | 332° |
| 2026-05-04 22:12 | 46.14164 | -0.44625 | 38001 ft | 464 kts | 332° |
| 2026-05-04 22:13 | 46.19890 | -0.48917 | 38001 ft | 464 kts | 332° |
| 2026-05-04 22:13 | 46.25611 | -0.53228 | 38002 ft | 463 kts | 332° |
| 2026-05-04 22:14 | 46.31335 | -0.57538 | 38001 ft | 463 kts | 332° |
| 2026-05-04 22:14 | 46.37053 | -0.61851 | 38001 ft | 463 kts | 332° |
| 2026-05-04 22:15 | 46.42884 | -0.65816 | 37999 ft | 464 kts | 342° |
| 2026-05-04 22:15 | 46.49236 | -0.67429 | 38003 ft | 464 kts | 353° |
| 2026-05-04 22:16 | 46.55622 | -0.68444 | 38002 ft | 465 kts | 353° |
| 2026-05-04 22:16 | 46.62050 | -0.69501 | 38001 ft | 465 kts | 353° |
| 2026-05-04 22:17 | 46.68470 | -0.70585 | 38002 ft | 465 kts | 353° |
| 2026-05-04 22:17 | 46.74908 | -0.71674 | 38002 ft | 465 kts | 353° |
| 2026-05-04 22:18 | 46.81339 | -0.72759 | 38001 ft | 465 kts | 353° |
| 2026-05-04 22:18 | 46.87767 | -0.73849 | 38001 ft | 465 kts | 353° |
| 2026-05-04 22:19 | 46.94204 | -0.74949 | 38001 ft | 465 kts | 353° |
| 2026-05-04 22:19 | 46.99552 | -0.75863 | 38001 ft | 465 kts | 353° |
| 2026-05-04 22:20 | 47.05976 | -0.76957 | 38001 ft | 465 kts | 353° |
| 2026-05-04 22:20 | 47.12407 | -0.78063 | 38002 ft | 465 kts | 353° |
| 2026-05-04 22:21 | 47.18838 | -0.79163 | 38001 ft | 465 kts | 353° |
| 2026-05-04 22:21 | 47.25264 | -0.80270 | 38001 ft | 465 kts | 353° |
| 2026-05-04 22:22 | 47.31689 | -0.81376 | 38002 ft | 465 kts | 353° |
| 2026-05-04 22:22 | 47.38116 | -0.82492 | 38002 ft | 464 kts | 353° |
| 2026-05-04 22:23 | 47.44491 | -0.83597 | 38001 ft | 464 kts | 353° |
| 2026-05-04 22:23 | 47.50916 | -0.84718 | 38001 ft | 464 kts | 353° |
| 2026-05-04 22:24 | 47.57350 | -0.85668 | 38002 ft | 465 kts | 355° |
| 2026-05-04 22:24 | 47.63793 | -0.86449 | 38001 ft | 464 kts | 355° |
| 2026-05-04 22:25 | 47.70226 | -0.87233 | 38001 ft | 464 kts | 355° |
| 2026-05-04 22:25 | 47.76670 | -0.88022 | 38002 ft | 464 kts | 355° |
| 2026-05-04 22:26 | 47.83112 | -0.88809 | 38001 ft | 464 kts | 355° |
| 2026-05-04 22:26 | 47.89555 | -0.89596 | 38002 ft | 465 kts | 355° |
| 2026-05-04 22:27 | 47.95999 | -0.90396 | 38002 ft | 465 kts | 355° |
| 2026-05-04 22:27 | 48.02448 | -0.91194 | 38002 ft | 465 kts | 355° |
| 2026-05-04 22:28 | 48.08888 | -0.91992 | 38002 ft | 465 kts | 355° |
| 2026-05-04 22:28 | 48.15303 | -0.92786 | 38001 ft | 465 kts | 355° |
| 2026-05-04 22:29 | 48.21787 | -0.93589 | 38001 ft | 465 kts | 355° |
| 2026-05-04 22:29 | 48.28203 | -0.94389 | 38001 ft | 465 kts | 355° |
| 2026-05-04 22:30 | 48.34654 | -0.95190 | 38001 ft | 465 kts | 355° |
| 2026-05-04 22:30 | 48.41113 | -0.96002 | 38001 ft | 465 kts | 355° |
| 2026-05-04 22:31 | 48.47573 | -0.96810 | 38001 ft | 465 kts | 355° |
| 2026-05-04 22:31 | 48.54033 | -0.97627 | 38002 ft | 465 kts | 355° |
| 2026-05-04 22:32 | 48.60488 | -0.98442 | 38002 ft | 465 kts | 355° |
| 2026-05-04 22:32 | 48.66931 | -0.99260 | 38002 ft | 465 kts | 355° |
| 2026-05-04 22:33 | 48.73387 | -1.00082 | 38002 ft | 465 kts | 355° |
| 2026-05-04 22:33 | 48.79846 | -1.00902 | 38001 ft | 466 kts | 355° |
| 2026-05-04 22:34 | 48.86305 | -1.01728 | 38001 ft | 465 kts | 355° |
| 2026-05-04 22:34 | 48.92757 | -1.02558 | 38001 ft | 465 kts | 355° |
| 2026-05-04 22:35 | 48.99206 | -1.03382 | 38002 ft | 465 kts | 355° |
| 2026-05-04 22:35 | 49.05610 | -1.04209 | 38002 ft | 464 kts | 355° |
| 2026-05-04 22:36 | 49.12050 | -1.05038 | 38002 ft | 465 kts | 355° |
| 2026-05-04 22:36 | 49.18496 | -1.05876 | 38002 ft | 465 kts | 355° |
| 2026-05-04 22:37 | 49.24934 | -1.06711 | 38001 ft | 464 kts | 355° |
| 2026-05-04 22:37 | 49.31367 | -1.07542 | 38001 ft | 464 kts | 355° |
| 2026-05-04 22:38 | 49.37802 | -1.08383 | 38002 ft | 464 kts | 355° |
| 2026-05-04 22:38 | 49.44243 | -1.09226 | 38002 ft | 464 kts | 355° |
| 2026-05-04 22:39 | 49.50670 | -1.10070 | 38001 ft | 464 kts | 355° |
| 2026-05-04 22:39 | 49.57113 | -1.10103 | 38003 ft | 465 kts | 9° |
| 2026-05-04 22:40 | 49.63462 | -1.08175 | 38005 ft | 465 kts | 11° |
| 2026-05-04 22:40 | 49.69814 | -1.06240 | 38001 ft | 465 kts | 11° |
| 2026-05-04 22:41 | 49.76074 | -1.04411 | 37677 ft | 450 kts | 10° |
| 2026-05-04 22:41 | 49.79122 | -1.03519 | 37355 ft | 442 kts | 10° |
| 2026-05-04 22:41 | 49.82136 | -1.02637 | 37032 ft | 440 kts | 10° |
| 2026-05-04 22:41 | 49.85139 | -1.01759 | 36707 ft | 439 kts | 10° |
| 2026-05-04 22:42 | 49.88138 | -1.00879 | 36381 ft | 437 kts | 10° |
| 2026-05-04 22:42 | 49.91079 | -1.00013 | 36062 ft | 435 kts | 10° |
| 2026-05-04 22:42 | 49.94039 | -0.99142 | 35735 ft | 432 kts | 10° |
| 2026-05-04 22:42 | 49.96986 | -0.98274 | 35404 ft | 430 kts | 10° |
| 2026-05-04 22:43 | 49.99918 | -0.97413 | 35079 ft | 427 kts | 10° |
| 2026-05-04 22:43 | 50.02831 | -0.96554 | 34753 ft | 425 kts | 10° |
| 2026-05-04 22:43 | 50.05729 | -0.95696 | 34428 ft | 423 kts | 10° |
| 2026-05-04 22:43 | 50.08612 | -0.94843 | 34103 ft | 421 kts | 10° |
| 2026-05-04 22:44 | 50.11480 | -0.93993 | 33764 ft | 418 kts | 11° |
| 2026-05-04 22:44 | 50.14330 | -0.93140 | 33453 ft | 416 kts | 11° |
| 2026-05-04 22:44 | 50.17168 | -0.92293 | 33127 ft | 414 kts | 10° |
| 2026-05-04 22:44 | 50.19991 | -0.91452 | 32800 ft | 412 kts | 11° |
| 2026-05-04 22:45 | 50.22798 | -0.90613 | 32483 ft | 410 kts | 11° |
| 2026-05-04 22:45 | 50.28370 | -0.88953 | 31823 ft | 405 kts | 10° |
| 2026-05-04 22:45 | 50.31137 | -0.88127 | 31497 ft | 403 kts | 10° |
| 2026-05-04 22:46 | 50.33889 | -0.87305 | 31173 ft | 401 kts | 11° |
| 2026-05-04 22:46 | 50.36624 | -0.86486 | 30845 ft | 399 kts | 11° |
| 2026-05-04 22:46 | 50.39342 | -0.85670 | 30521 ft | 397 kts | 11° |
| 2026-05-04 22:46 | 50.42043 | -0.84859 | 30195 ft | 395 kts | 11° |
| 2026-05-04 22:47 | 50.44734 | -0.84051 | 29869 ft | 393 kts | 11° |
| 2026-05-04 22:47 | 50.47420 | -0.83242 | 29542 ft | 391 kts | 11° |
| 2026-05-04 22:47 | 50.50086 | -0.82438 | 29217 ft | 389 kts | 11° |
| 2026-05-04 22:47 | 50.52732 | -0.81640 | 28891 ft | 387 kts | 11° |
| 2026-05-04 22:48 | 50.55368 | -0.80842 | 28565 ft | 385 kts | 11° |
| 2026-05-04 22:48 | 50.57988 | -0.80049 | 28239 ft | 383 kts | 11° |
| 2026-05-04 22:48 | 50.60598 | -0.79259 | 27912 ft | 381 kts | 11° |
| 2026-05-04 22:48 | 50.63194 | -0.78474 | 27589 ft | 379 kts | 11° |
| 2026-05-04 22:49 | 50.65771 | -0.77694 | 27260 ft | 377 kts | 11° |
| 2026-05-04 22:49 | 50.68340 | -0.76916 | 26934 ft | 375 kts | 11° |
| 2026-05-04 22:49 | 50.70894 | -0.76141 | 26608 ft | 373 kts | 11° |
| 2026-05-04 22:49 | 50.73438 | -0.75368 | 26282 ft | 371 kts | 11° |
| 2026-05-04 22:50 | 50.75940 | -0.74606 | 25953 ft | 369 kts | 11° |
| 2026-05-04 22:50 | 50.78449 | -0.73840 | 25630 ft | 367 kts | 11° |
| 2026-05-04 22:50 | 50.80952 | -0.73077 | 25308 ft | 365 kts | 11° |
| 2026-05-04 22:50 | 50.83442 | -0.72315 | 24983 ft | 363 kts | 11° |
| 2026-05-04 22:51 | 50.85920 | -0.71556 | 24658 ft | 361 kts | 11° |
| 2026-05-04 22:51 | 50.88386 | -0.70799 | 24333 ft | 360 kts | 11° |
| 2026-05-04 22:51 | 50.90841 | -0.70047 | 24012 ft | 358 kts | 11° |
| 2026-05-04 22:51 | 50.93285 | -0.69297 | 23688 ft | 357 kts | 11° |
| 2026-05-04 22:52 | 50.95716 | -0.68551 | 23367 ft | 354 kts | 11° |
| 2026-05-04 22:52 | 50.98132 | -0.67807 | 23050 ft | 352 kts | 11° |
| 2026-05-04 22:52 | 51.00533 | -0.67065 | 22731 ft | 351 kts | 11° |
| 2026-05-04 22:52 | 51.02915 | -0.66330 | 22421 ft | 349 kts | 11° |
| 2026-05-04 22:53 | 51.05293 | -0.65593 | 22102 ft | 347 kts | 11° |
| 2026-05-04 22:53 | 51.07667 | -0.64861 | 21993 ft | 347 kts | 11° |
| 2026-05-04 22:53 | 51.10014 | -0.64134 | 21982 ft | 348 kts | 11° |
| 2026-05-04 22:53 | 51.12418 | -0.63389 | 21991 ft | 348 kts | 11° |
| 2026-05-04 22:54 | 51.14791 | -0.62651 | 22001 ft | 348 kts | 11° |
| 2026-05-04 22:54 | 51.17164 | -0.61915 | 21998 ft | 348 kts | 11° |
| 2026-05-04 22:54 | 51.19540 | -0.61177 | 22003 ft | 348 kts | 11° |
| 2026-05-04 22:54 | 51.21915 | -0.60439 | 22002 ft | 348 kts | 11° |
| 2026-05-04 22:55 | 51.24258 | -0.59707 | 22003 ft | 348 kts | 11° |
| 2026-05-04 22:55 | 51.26637 | -0.58965 | 22002 ft | 348 kts | 11° |
| 2026-05-04 22:55 | 51.29011 | -0.58227 | 22004 ft | 348 kts | 11° |
| 2026-05-04 22:55 | 51.31383 | -0.57488 | 22004 ft | 348 kts | 11° |
| 2026-05-04 22:56 | 51.33639 | -0.56784 | 22004 ft | 348 kts | 11° |
| 2026-05-04 22:56 | 51.36067 | -0.56023 | 22004 ft | 348 kts | 11° |
| 2026-05-04 22:56 | 51.38438 | -0.55279 | 22003 ft | 348 kts | 11° |
| 2026-05-04 22:56 | 51.40815 | -0.54535 | 22003 ft | 347 kts | 11° |
| 2026-05-04 22:57 | 51.43192 | -0.53788 | 22002 ft | 347 kts | 11° |
| 2026-05-04 22:57 | 51.45562 | -0.53043 | 22002 ft | 347 kts | 11° |
| 2026-05-04 22:57 | 51.47939 | -0.52296 | 22005 ft | 347 kts | 11° |
| 2026-05-04 22:57 | 51.50308 | -0.51551 | 22004 ft | 347 kts | 11° |
| 2026-05-04 22:58 | 51.52683 | -0.50802 | 22003 ft | 348 kts | 11° |
| 2026-05-04 22:58 | 51.55055 | -0.50052 | 22002 ft | 348 kts | 11° |
| 2026-05-04 22:58 | 51.57186 | -0.49373 | 22003 ft | 348 kts | 11° |
| 2026-05-04 22:58 | 51.59528 | -0.48630 | 22004 ft | 348 kts | 11° |
| 2026-05-04 22:59 | 51.61902 | -0.47877 | 22005 ft | 348 kts | 11° |
| 2026-05-04 22:59 | 51.64268 | -0.47129 | 21952 ft | 343 kts | 11° |
| 2026-05-04 22:59 | 51.66591 | -0.46393 | 21488 ft | 340 kts | 11° |
| 2026-05-04 22:59 | 51.68917 | -0.45656 | 20980 ft | 340 kts | 11° |
| 2026-05-04 23:00 | 51.71231 | -0.44920 | 20493 ft | 338 kts | 11° |
| 2026-05-04 23:00 | 51.73531 | -0.44186 | 19982 ft | 338 kts | 11° |
| 2026-05-04 23:00 | 51.75850 | -0.43446 | 19405 ft | 340 kts | 11° |
| 2026-05-04 23:00 | 51.77382 | -0.42959 | 19022 ft | 340 kts | 11° |
| 2026-05-04 23:01 | 51.80182 | -0.42585 | 18333 ft | 340 kts | 353° |
| 2026-05-04 23:01 | 51.82440 | -0.43652 | 17761 ft | 339 kts | 333° |
| 2026-05-04 23:01 | 51.84452 | -0.45533 | 17208 ft | 339 kts | 327° |
| 2026-05-04 23:01 | 51.86449 | -0.47566 | 16637 ft | 339 kts | 327° |
| 2026-05-04 23:02 | 51.88454 | -0.49583 | 16070 ft | 339 kts | 328° |
| 2026-05-04 23:02 | 51.90445 | -0.51552 | 15576 ft | 331 kts | 328° |
| 2026-05-04 23:02 | 51.92393 | -0.53461 | 15121 ft | 324 kts | 328° |
| 2026-05-04 23:02 | 51.94302 | -0.55325 | 14688 ft | 317 kts | 328° |
| 2026-05-04 23:03 | 51.96175 | -0.57154 | 14264 ft | 310 kts | 328° |
| 2026-05-04 23:03 | 51.98007 | -0.58941 | 13901 ft | 306 kts | 328° |
| 2026-05-04 23:03 | 51.99822 | -0.60714 | 13570 ft | 304 kts | 328° |
| 2026-05-04 23:03 | 52.01630 | -0.62485 | 13237 ft | 302 kts | 328° |
| 2026-05-04 23:04 | 52.03423 | -0.64243 | 12886 ft | 301 kts | 328° |
| 2026-05-04 23:04 | 52.04608 | -0.65403 | 12654 ft | 299 kts | 328° |
| 2026-05-04 23:04 | 52.06390 | -0.67152 | 12301 ft | 298 kts | 328° |
| 2026-05-04 23:04 | 52.08160 | -0.68893 | 11951 ft | 296 kts | 328° |
| 2026-05-04 23:05 | 52.09923 | -0.70629 | 11599 ft | 295 kts | 328° |
| 2026-05-04 23:05 | 52.11670 | -0.72348 | 11251 ft | 293 kts | 328° |
| 2026-05-04 23:05 | 52.13411 | -0.74061 | 10909 ft | 292 kts | 328° |
| 2026-05-04 23:05 | 52.15142 | -0.75767 | 10587 ft | 290 kts | 328° |
| 2026-05-04 23:06 | 52.16868 | -0.77468 | 10257 ft | 289 kts | 328° |
| 2026-05-04 23:06 | 52.18588 | -0.79167 | 9929 ft | 288 kts | 328° |
| 2026-05-04 23:06 | 52.20295 | -0.80855 | 9609 ft | 286 kts | 328° |
| 2026-05-04 23:06 | 52.21992 | -0.82536 | 9293 ft | 285 kts | 328° |
| 2026-05-04 23:07 | 52.23635 | -0.84322 | 8965 ft | 283 kts | 319° |
| 2026-05-04 23:07 | 52.24858 | -0.86802 | 8641 ft | 281 kts | 296° |
| 2026-05-04 23:07 | 52.25475 | -0.89814 | 8359 ft | 280 kts | 283° |
| 2026-05-04 23:07 | 52.25896 | -0.92909 | 8083 ft | 279 kts | 282° |
| 2026-05-04 23:08 | 52.26298 | -0.95997 | 7811 ft | 278 kts | 282° |
| 2026-05-04 23:08 | 52.26699 | -0.99081 | 7538 ft | 277 kts | 282° |
| 2026-05-04 23:08 | 52.27101 | -1.02150 | 7264 ft | 276 kts | 282° |
| 2026-05-04 23:08 | 52.27501 | -1.05203 | 6995 ft | 275 kts | 282° |
| 2026-05-04 23:09 | 52.27899 | -1.08253 | 6720 ft | 273 kts | 282° |
| 2026-05-04 23:09 | 52.28290 | -1.11243 | 6450 ft | 272 kts | 282° |
| 2026-05-04 23:09 | 52.28683 | -1.14259 | 6179 ft | 271 kts | 282° |
| 2026-05-04 23:09 | 52.29075 | -1.17266 | 5908 ft | 270 kts | 282° |
| 2026-05-04 23:10 | 52.29464 | -1.20265 | 5638 ft | 269 kts | 282° |
| 2026-05-04 23:10 | 52.29851 | -1.23254 | 5363 ft | 268 kts | 282° |
| 2026-05-04 23:10 | 52.30237 | -1.26231 | 5095 ft | 267 kts | 282° |
| 2026-05-04 23:10 | 52.30621 | -1.29192 | 4827 ft | 266 kts | 282° |
| 2026-05-04 23:11 | 52.31003 | -1.32143 | 4563 ft | 265 kts | 282° |
| 2026-05-04 23:11 | 52.31381 | -1.35082 | 4284 ft | 264 kts | 282° |
| 2026-05-04 23:11 | 52.31757 | -1.38006 | 4011 ft | 263 kts | 282° |
| 2026-05-04 23:11 | 52.32129 | -1.40915 | 3734 ft | 259 kts | 282° |
| 2026-05-04 23:12 | 52.32495 | -1.43776 | 3444 ft | 255 kts | 282° |
| 2026-05-04 23:12 | 52.32853 | -1.46576 | 3168 ft | 249 kts | 282° |
| 2026-05-04 23:12 | 52.33199 | -1.49309 | 2905 ft | 242 kts | 281° |
| 2026-05-04 23:12 | 52.33535 | -1.51964 | 2652 ft | 237 kts | 281° |
| 2026-05-04 23:13 | 52.33867 | -1.54593 | 2398 ft | 236 kts | 281° |
| 2026-05-04 23:13 | 52.34194 | -1.57194 | 2144 ft | 230 kts | 281° |
| 2026-05-04 23:13 | 52.34504 | -1.59658 | 1973 ft | 212 kts | 281° |
| 2026-05-04 23:13 | 52.34809 | -1.61954 | 1904 ft | 204 kts | 285° |
| 2026-05-04 23:14 | 52.35520 | -1.63901 | 1893 ft | 197 kts | 316° |
| 2026-05-04 23:14 | 52.36567 | -1.65146 | 1901 ft | 176 kts | 328° |
| 2026-05-04 23:14 | 52.37537 | -1.66127 | 1931 ft | 149 kts | 327° |
| 2026-05-04 23:14 | 52.38338 | -1.66989 | 1828 ft | 134 kts | 326° |
| 2026-05-04 23:15 | 52.39104 | -1.67832 | 1660 ft | 132 kts | 326° |
| 2026-05-04 23:15 | 52.39862 | -1.68671 | 1473 ft | 132 kts | 325° |
| 2026-05-04 23:15 | 52.40619 | -1.69511 | 1310 ft | 131 kts | 325° |
| 2026-05-04 23:15 | 52.41375 | -1.70350 | 1137 ft | 131 kts | 325° |
| 2026-05-04 23:16 | 52.42127 | -1.71185 | 959 ft | 131 kts | 325° |
| 2026-05-04 23:16 | 52.42870 | -1.72010 | 788 ft | 130 kts | 325° |
| 2026-05-04 23:16 | 52.43620 | -1.72845 | 623 ft | 130 kts | 326° |
| 2026-05-04 23:16 | 52.44367 | -1.73676 | 447 ft | 130 kts | 326° |
| 2026-05-04 23:17 | 52.45115 | -1.74493 | 335 ft | 122 kts | 327° |
| 2026-05-04 23:17 | 52.45657 | -1.75099 | 327 ft | 64 kts | 326° |
| 2026-05-04 23:17 | 52.45927 | -1.75392 | 322 ft | 16 kts | 327° |
| 2026-05-04 23:17 | 52.46025 | -1.75500 | 317 ft | 18 kts | 325° |
| 2026-05-04 23:18 | 52.46134 | -1.75611 | 315 ft | 21 kts | 13° |
| 2026-05-04 23:18 | 52.46214 | -1.75448 | 310 ft | 5 kts | 85° |
| 2026-05-04 23:18 | 52.46199 | -1.75382 | 310 ft | 8 kts | 133° |
| 2026-05-04 23:18 | 52.46144 | -1.75317 | 311 ft | 11 kts | 145° |
| 2026-05-04 23:19 | 52.46071 | -1.75235 | 312 ft | 14 kts | 146° |
| 2026-05-04 23:19 | 52.45979 | -1.75133 | 310 ft | 17 kts | 146° |
| 2026-05-04 23:19 | 52.45872 | -1.75016 | 312 ft | 20 kts | 146° |
| 2026-05-04 23:19 | 52.45750 | -1.74880 | 316 ft | 23 kts | 147° |
| 2026-05-04 23:20 | 52.45608 | -1.74722 | 323 ft | 24 kts | 144° |
| 2026-05-04 23:20 | 52.45518 | -1.74623 | 325 ft | 16 kts | 147° |
| 2026-05-04 23:20 | 52.45444 | -1.74469 | 327 ft | 19 kts | 115° |
| 2026-05-04 23:20 | 52.45384 | -1.74264 | 327 ft | 21 kts | 120° |
| 2026-05-04 23:21 | 52.45313 | -1.74049 | 327 ft | 18 kts | 117° |
| 2026-05-04 23:21 | 52.45215 | -1.73908 | 327 ft | 20 kts | 145° |
| 2026-05-04 23:21 | 52.45121 | -1.73799 | 328 ft | 12 kts | 145° |
| 2026-05-04 23:21 | 52.45041 | -1.73731 | 327 ft | 14 kts | 164° |
| 2026-05-04 23:22 | 52.44983 | -1.73688 | 328 ft | 5 kts | 147° |
| 2026-05-04 23:22 | 52.44975 | -1.73639 | 329 ft | 6 kts | 47° |
| 2026-05-04 23:22 | 52.44999 | -1.73592 | 329 ft | 0 kts | 55° |
| 2026-05-04 23:22 | 52.45002 | -1.73584 | 326 ft | 0 kts | 56° |
| 2026-05-04 23:23 | 52.45004 | -1.73579 | 326 ft | 0 kts | 56° |